createdAt,value
2019-01-18T03:13:32.699Z,22.39
2019-01-18T03:14:32.601Z,22.37
2019-01-18T03:15:32.630Z,22.41
2019-01-18T03:16:32.639Z,22.38
2019-01-18T03:17:32.699Z,22.37
2019-01-18T03:18:32.910Z,22.39
2019-01-18T03:19:32.821Z,22.37
2019-01-18T03:20:32.823Z,22.34
2019-01-18T03:21:32.899Z,22.37
2019-01-18T03:22:32.893Z,22.34
2019-01-18T03:23:32.947Z,22.37
2019-01-18T03:24:33.030Z,22.38
2019-01-18T03:25:33.072Z,22.43
2019-01-18T03:26:33.178Z,22.41
2019-01-18T03:27:33.113Z,22.50
2019-01-18T03:28:33.329Z,22.38
2019-01-18T03:29:33.206Z,22.39
2019-01-18T03:30:33.271Z,22.35
2019-01-18T03:31:33.326Z,22.38
2019-01-18T03:32:33.459Z,22.35
2019-01-18T03:33:33.461Z,22.39
2019-01-18T03:34:33.479Z,22.39
2019-01-18T03:35:33.517Z,22.34
2019-01-18T03:36:33.569Z,22.35
2019-01-18T03:37:33.597Z,22.34
2019-01-18T03:38:33.639Z,22.34
2019-01-18T03:39:33.695Z,22.39
2019-01-18T03:40:33.749Z,22.32
2019-01-18T03:41:33.782Z,22.38
2019-01-18T03:42:33.896Z,22.35
2019-01-18T03:43:33.891Z,22.34
2019-01-18T03:44:33.936Z,22.34
2019-01-18T03:45:33.997Z,22.28
2019-01-18T03:46:34.045Z,22.29
2019-01-18T03:47:34.146Z,22.29
2019-01-18T03:48:34.138Z,22.31
2019-01-18T03:49:34.149Z,22.28
2019-01-18T03:50:34.255Z,22.35
2019-01-18T03:51:34.255Z,22.32
2019-01-18T03:52:34.333Z,22.31
2019-01-18T03:53:34.352Z,22.31
2019-01-18T03:54:34.430Z,22.29
2019-01-18T03:55:34.476Z,22.34
2019-01-18T03:56:34.529Z,22.38
2019-01-18T03:57:34.574Z,22.39
2019-01-18T03:58:34.612Z,22.37
2019-01-18T03:59:34.709Z,22.39
2019-01-18T04:00:34.709Z,22.37
2019-01-18T04:01:34.775Z,22.31
2019-01-18T04:02:34.826Z,22.37
2019-01-18T04:03:34.885Z,22.35
2019-01-18T04:04:34.895Z,22.35
2019-01-18T04:05:34.938Z,22.35
2019-01-18T04:06:35.018Z,22.34
2019-01-18T04:07:35.060Z,22.32
2019-01-18T04:08:35.167Z,22.20
2019-01-18T04:09:35.158Z,22.32
2019-01-18T04:10:35.186Z,22.31
2019-01-18T04:11:35.235Z,22.34
2019-01-18T04:12:35.281Z,22.39
2019-01-18T04:13:35.338Z,22.32
2019-01-18T04:14:35.413Z,22.37
2019-01-18T04:15:35.424Z,22.37
2019-01-18T04:16:35.478Z,22.32
2019-01-18T04:17:35.519Z,22.37
2019-01-18T04:18:35.579Z,22.35
2019-01-18T04:19:35.655Z,22.31
2019-01-18T04:20:35.673Z,22.35
2019-01-18T04:21:35.709Z,22.35
2019-01-18T04:22:35.755Z,22.32
2019-01-18T04:23:35.829Z,22.31
2019-01-18T04:24:35.877Z,22.37
2019-01-18T04:25:35.913Z,22.41
2019-01-18T04:26:36.017Z,22.34
2019-01-18T04:27:36.067Z,22.29
2019-01-18T04:28:36.062Z,22.38
2019-01-18T04:29:36.105Z,22.32
2019-01-18T04:30:36.172Z,22.37
2019-01-18T04:31:36.205Z,22.29
2019-01-18T04:32:36.260Z,22.29
2019-01-18T04:33:36.305Z,22.29
2019-01-18T04:34:36.337Z,22.39
2019-01-18T04:35:36.416Z,22.37
2019-01-18T04:36:36.454Z,22.37
2019-01-18T04:37:36.521Z,22.34
2019-01-18T04:38:36.533Z,22.34
2019-01-18T04:39:36.612Z,22.34
2019-01-18T04:40:36.719Z,22.32
2019-01-18T04:41:36.683Z,22.35
2019-01-18T04:42:36.750Z,22.38
2019-01-18T04:43:36.809Z,22.29
2019-01-18T04:44:36.850Z,22.35
2019-01-18T04:45:36.871Z,22.34
2019-01-18T04:46:36.933Z,22.29
2019-01-18T04:47:36.985Z,22.34
2019-01-18T04:48:37.040Z,22.35
2019-01-18T04:49:37.117Z,22.37
2019-01-18T04:50:37.133Z,22.34
2019-01-18T04:51:37.204Z,22.37
2019-01-18T04:52:37.232Z,22.35
2019-01-18T04:53:37.263Z,22.34
2019-01-18T04:54:37.321Z,22.32
2019-01-18T04:55:37.360Z,22.32
2019-01-18T04:56:37.573Z,22.38
2019-01-18T04:57:37.472Z,22.35
2019-01-18T04:58:37.540Z,22.37
2019-01-18T04:59:37.557Z,22.34
2019-01-18T05:00:41.089Z,22.27
2019-01-18T05:01:37.664Z,22.34
2019-01-18T05:02:37.719Z,22.34
2019-01-18T05:03:37.756Z,22.37
2019-01-18T05:04:37.797Z,22.32
2019-01-18T05:05:37.840Z,22.37
2019-01-18T05:06:38.049Z,22.37
2019-01-18T05:07:37.967Z,22.32
2019-01-18T05:08:37.987Z,22.32
2019-01-18T05:09:38.052Z,22.35
2019-01-18T05:10:38.089Z,22.37
2019-01-18T05:11:38.120Z,22.35
2019-01-18T05:12:38.189Z,22.38
2019-01-18T05:13:38.234Z,22.35
2019-01-18T05:14:38.318Z,22.35
2019-01-18T05:15:38.341Z,22.32
2019-01-18T05:16:38.376Z,22.32
2019-01-18T05:17:38.430Z,22.32
2019-01-18T05:18:38.484Z,22.31
2019-01-18T05:19:38.518Z,22.32
2019-01-18T05:20:38.567Z,22.37
2019-01-18T05:21:38.649Z,22.32
2019-01-18T05:22:38.677Z,22.28
2019-01-18T05:23:38.716Z,22.31
2019-01-18T05:24:38.868Z,22.34
2019-01-18T05:25:38.803Z,22.28
2019-01-18T05:26:38.850Z,22.35
2019-01-18T05:27:38.905Z,22.34
2019-01-18T05:28:38.958Z,22.37
2019-01-18T05:29:39.006Z,22.22
2019-01-18T05:30:39.043Z,22.29
2019-01-18T05:31:39.097Z,22.35
2019-01-18T05:32:39.129Z,22.28
2019-01-18T05:33:39.248Z,22.31
2019-01-18T05:34:39.257Z,22.34
2019-01-18T05:35:39.296Z,22.29
2019-01-18T05:36:39.345Z,22.23
2019-01-18T05:37:39.381Z,22.27
2019-01-18T05:38:39.447Z,22.25
2019-01-18T05:39:39.508Z,22.31
2019-01-18T05:40:39.540Z,22.25
2019-01-18T05:41:39.595Z,22.34
2019-01-18T05:42:39.650Z,22.28
2019-01-18T05:43:39.807Z,22.34
2019-01-18T05:44:40.889Z,22.23
2019-01-18T05:45:39.770Z,22.35
2019-01-18T05:46:39.821Z,22.31
2019-01-18T05:47:39.859Z,22.39
2019-01-18T05:48:39.914Z,22.34
2019-01-18T05:49:39.966Z,22.32
2019-01-18T05:50:40.003Z,22.34
2019-01-18T05:51:40.060Z,22.28
2019-01-18T05:52:40.098Z,22.34
2019-01-18T05:53:40.153Z,22.31
2019-01-18T05:54:40.362Z,22.32
2019-01-18T05:55:40.260Z,22.34
2019-01-18T05:56:40.289Z,22.35
2019-01-18T05:57:40.345Z,22.39
2019-01-18T05:58:40.409Z,22.34
2019-01-18T05:59:40.453Z,22.34
2019-01-18T06:00:40.486Z,22.32
2019-01-18T06:01:40.580Z,22.29
2019-01-18T06:02:40.574Z,22.32
2019-01-18T06:03:40.628Z,22.35
2019-01-18T06:04:40.707Z,22.39
2019-01-18T06:05:40.736Z,22.32
2019-01-18T06:06:40.776Z,22.38
2019-01-18T06:07:40.870Z,22.39
2019-01-18T06:08:40.878Z,22.32
2019-01-18T06:09:40.957Z,22.31
2019-01-18T06:10:40.966Z,22.28
2019-01-18T06:11:41.016Z,22.32
2019-01-18T06:12:41.056Z,22.34
2019-01-18T06:13:41.106Z,22.35
2019-01-18T06:14:41.165Z,22.35
2019-01-18T06:15:41.208Z,22.38
2019-01-18T06:16:41.319Z,22.22
2019-01-18T06:17:41.293Z,22.19
2019-01-18T06:18:41.359Z,22.25
2019-01-18T06:19:41.409Z,22.20
2019-01-18T06:20:41.483Z,22.27
2019-01-18T06:21:41.489Z,22.25
2019-01-18T06:22:41.543Z,22.25
2019-01-18T06:23:41.688Z,22.28
2019-01-18T06:24:41.634Z,22.22
2019-01-18T06:25:41.730Z,22.23
2019-01-18T06:26:41.721Z,22.20
2019-01-18T06:27:41.793Z,22.27
2019-01-18T06:28:41.825Z,22.29
2019-01-18T06:29:41.915Z,22.29
2019-01-18T06:30:41.927Z,22.37
2019-01-18T06:31:41.970Z,22.35
2019-01-18T06:32:42.020Z,22.34
2019-01-18T06:33:42.066Z,22.31
2019-01-18T06:34:42.123Z,22.28
2019-01-18T06:35:42.270Z,22.27
2019-01-18T06:36:42.207Z,22.32
2019-01-18T06:37:42.254Z,22.23
2019-01-18T06:38:42.306Z,22.29
2019-01-18T06:39:42.361Z,22.27
2019-01-18T06:40:42.415Z,22.31
2019-01-18T06:41:42.533Z,22.22
2019-01-18T06:42:42.500Z,22.20
2019-01-18T06:43:42.542Z,22.25
2019-01-18T06:44:42.582Z,22.23
2019-01-18T06:45:42.675Z,22.19
2019-01-18T06:46:42.689Z,22.23
2019-01-18T06:48:03.903Z,22.23
2019-01-18T06:48:42.791Z,22.23
2019-01-18T06:49:42.817Z,22.25
2019-01-18T06:50:42.882Z,22.23
2019-01-18T06:51:42.938Z,22.28
2019-01-18T06:52:42.986Z,22.23
2019-01-18T06:53:43.202Z,22.28
2019-01-18T06:54:43.112Z,22.29
2019-01-18T06:55:43.158Z,22.23
2019-01-18T06:56:43.217Z,22.29
2019-01-18T06:57:43.221Z,22.22
2019-01-18T06:58:43.280Z,22.31
2019-01-18T06:59:43.313Z,22.29
2019-01-18T07:00:43.354Z,22.37
2019-01-18T07:01:43.409Z,22.34
2019-01-18T07:02:43.446Z,22.35
2019-01-18T07:03:43.500Z,22.31
2019-01-18T07:04:43.546Z,22.38
2019-01-18T07:05:43.608Z,22.46
2019-01-18T07:06:43.639Z,22.39
2019-01-18T07:07:43.702Z,22.41
2019-01-18T07:08:43.757Z,22.54
2019-01-18T07:09:43.781Z,22.46
2019-01-18T07:10:43.895Z,22.54
2019-01-18T07:11:43.889Z,22.49
2019-01-18T07:12:43.942Z,22.56
2019-01-18T07:13:44.077Z,22.49
2019-01-18T07:14:44.032Z,22.52
2019-01-18T07:15:44.087Z,22.53
2019-01-18T07:16:44.123Z,22.60
2019-01-18T07:17:44.172Z,22.50
2019-01-18T07:18:44.223Z,22.49
2019-01-18T07:19:44.291Z,22.57
2019-01-18T07:20:44.311Z,22.54
2019-01-18T07:21:44.420Z,22.67
2019-01-18T07:22:44.401Z,22.68
2019-01-18T07:23:44.457Z,22.72
2019-01-18T07:24:44.669Z,22.71
2019-01-18T07:25:44.603Z,22.67
2019-01-18T07:26:44.601Z,22.54
2019-01-18T07:27:44.696Z,22.68
2019-01-18T07:28:44.691Z,22.65
2019-01-18T07:29:44.751Z,22.59
2019-01-18T07:30:44.788Z,22.68
2019-01-18T07:31:44.844Z,22.69
2019-01-18T07:32:44.920Z,22.64
2019-01-18T07:33:44.931Z,22.65
2019-01-18T07:34:44.991Z,22.62
2019-01-18T07:35:45.143Z,22.67
2019-01-18T07:36:45.073Z,22.67
2019-01-18T07:37:45.138Z,22.60
2019-01-18T07:38:45.187Z,22.67
2019-01-18T07:39:45.232Z,22.67
2019-01-18T07:40:45.280Z,22.67
2019-01-18T07:41:45.312Z,22.52
2019-01-18T07:42:45.406Z,22.68
2019-01-18T07:43:45.409Z,22.68
2019-01-18T07:44:45.472Z,22.71
2019-01-18T07:45:45.527Z,22.69
2019-01-18T07:46:45.582Z,22.69
2019-01-18T07:47:45.655Z,22.53
2019-01-18T07:48:45.660Z,22.65
2019-01-18T07:49:45.706Z,22.68
2019-01-18T07:50:45.742Z,22.65
2019-01-18T07:51:45.840Z,22.72
2019-01-18T07:52:45.845Z,22.72
2019-01-18T07:53:45.996Z,22.65
2019-01-18T07:54:45.992Z,22.75
2019-01-18T07:55:46.014Z,22.80
2019-01-18T07:56:46.053Z,22.69
2019-01-18T07:57:46.087Z,22.71
2019-01-18T07:58:46.127Z,22.64
2019-01-18T07:59:46.183Z,22.62
2019-01-18T08:00:46.227Z,22.75
2019-01-18T08:01:46.301Z,22.72
2019-01-18T08:02:46.327Z,22.75
2019-01-18T08:03:46.427Z,22.65
2019-01-18T08:04:46.428Z,22.72
2019-01-18T08:05:46.470Z,22.69
2019-01-18T08:06:46.523Z,22.65
2019-01-18T08:07:46.576Z,22.67
2019-01-18T08:08:46.620Z,22.65
2019-01-18T08:09:46.660Z,22.59
2019-01-18T08:10:46.711Z,22.68
2019-01-18T08:11:46.776Z,22.62
2019-01-18T08:12:46.822Z,22.67
2019-01-18T08:13:46.849Z,22.65
2019-01-18T08:14:46.908Z,22.67
2019-01-18T08:15:46.946Z,22.71
2019-01-18T08:16:47.011Z,22.69
2019-01-18T08:17:47.057Z,22.62
2019-01-18T08:18:47.106Z,22.67
2019-01-18T08:19:47.187Z,22.68
2019-01-18T08:20:47.200Z,22.60
2019-01-18T08:21:47.242Z,22.67
2019-01-18T08:22:47.309Z,22.67
2019-01-18T08:23:47.334Z,22.64
2019-01-18T08:24:47.387Z,22.69
2019-01-18T08:25:47.441Z,22.62
2019-01-18T08:26:47.492Z,22.57
2019-01-18T08:27:47.529Z,22.64
2019-01-18T08:28:48.597Z,22.65
2019-01-18T08:29:47.622Z,22.65
2019-01-18T08:30:47.683Z,22.54
2019-01-18T08:31:47.730Z,22.64
2019-01-18T08:32:47.777Z,22.56
2019-01-18T08:33:47.810Z,22.69
2019-01-18T08:34:47.873Z,22.64
2019-01-18T08:35:47.930Z,22.69
2019-01-18T08:36:48.015Z,22.65
2019-01-18T08:37:48.052Z,22.67
2019-01-18T08:38:48.079Z,22.69
2019-01-18T08:39:48.115Z,22.67
2019-01-18T08:40:48.172Z,22.68
2019-01-18T08:41:48.214Z,22.68
2019-01-18T08:42:48.274Z,22.68
2019-01-18T08:43:48.330Z,22.68
2019-01-18T08:44:48.352Z,22.64
2019-01-18T08:45:48.387Z,22.69
2019-01-18T08:46:48.444Z,22.62
2019-01-18T08:47:48.486Z,22.67
2019-01-18T08:48:48.533Z,22.50
2019-01-18T08:49:48.582Z,22.65
2019-01-18T08:50:48.646Z,22.60
2019-01-18T08:51:48.710Z,22.68
2019-01-18T08:52:48.750Z,22.64
2019-01-18T08:53:48.767Z,22.67
2019-01-18T08:54:48.820Z,22.65
2019-01-18T08:55:48.949Z,22.69
2019-01-18T08:56:48.917Z,22.67
2019-01-18T08:57:48.978Z,22.64
2019-01-18T08:58:49.001Z,22.72
2019-01-18T08:59:49.052Z,22.56
2019-01-18T09:00:49.115Z,22.67
2019-01-18T09:01:49.148Z,22.67
2019-01-18T09:02:49.205Z,22.62
2019-01-18T09:03:49.245Z,22.68
2019-01-18T09:04:49.308Z,22.57
2019-01-18T09:05:49.336Z,22.69
2019-01-18T09:06:49.387Z,22.74
2019-01-18T09:07:49.463Z,22.72
2019-01-18T09:08:49.503Z,22.60
2019-01-18T09:09:49.523Z,22.69
2019-01-18T09:10:49.598Z,22.71
2019-01-18T09:11:49.626Z,22.75
2019-01-18T09:12:49.688Z,22.78
2019-01-18T09:13:49.793Z,22.80
2019-01-18T09:14:49.771Z,22.80
2019-01-18T09:15:49.843Z,22.87
2019-01-18T09:16:49.870Z,22.92
2019-01-18T09:17:49.907Z,22.97
2019-01-18T09:18:49.954Z,22.96
2019-01-18T09:19:50.027Z,22.93
2019-01-18T09:20:50.047Z,23.02
2019-01-18T09:21:50.126Z,23.14
2019-01-18T09:22:50.148Z,23.09
2019-01-18T09:23:50.222Z,23.15
2019-01-18T09:24:50.271Z,23.27
2019-01-18T09:25:50.308Z,23.39
2019-01-18T09:26:50.369Z,23.50
2019-01-18T09:27:50.397Z,23.45
2019-01-18T09:28:50.437Z,23.60
2019-01-18T09:29:50.513Z,23.72
2019-01-18T09:30:50.535Z,23.76
2019-01-18T09:31:50.714Z,23.85
2019-01-18T09:32:50.645Z,23.86
2019-01-18T09:33:50.691Z,23.85
2019-01-18T09:34:50.761Z,23.79
2019-01-18T09:35:50.809Z,23.86
2019-01-18T09:36:50.850Z,24.01
2019-01-18T09:37:50.914Z,24.08
2019-01-18T09:38:50.935Z,24.13
2019-01-18T09:39:50.974Z,24.17
2019-01-18T09:40:51.037Z,24.13
2019-01-18T09:41:51.089Z,24.20
2019-01-18T09:42:51.125Z,24.10
2019-01-18T09:43:51.232Z,24.01
2019-01-18T09:44:51.245Z,24.13
2019-01-18T09:45:51.301Z,24.31
2019-01-18T09:46:51.318Z,24.52
2019-01-18T09:47:51.379Z,24.54
2019-01-18T09:48:51.488Z,24.54
2019-01-18T09:49:51.486Z,24.53
2019-01-18T09:50:51.541Z,24.61
2019-01-18T09:51:51.590Z,24.37
2019-01-18T09:52:51.636Z,24.39
2019-01-18T09:53:51.694Z,24.29
2019-01-18T09:54:51.746Z,24.26
2019-01-18T09:55:51.818Z,24.22
2019-01-18T09:56:51.828Z,24.37
2019-01-18T09:57:51.879Z,24.39
2019-01-18T09:58:51.922Z,24.61
2019-01-18T09:59:51.955Z,24.77
2019-01-18T10:00:52.051Z,24.91
2019-01-18T10:01:52.083Z,24.88
2019-01-18T10:02:52.127Z,25.00
2019-01-18T10:03:52.169Z,25.07
2019-01-18T10:04:52.207Z,24.83
2019-01-18T10:05:52.253Z,24.79
2019-01-18T10:06:52.415Z,24.76
2019-01-18T10:07:52.373Z,24.79
2019-01-18T10:08:52.418Z,24.67
2019-01-18T10:09:52.475Z,24.67
2019-01-18T10:10:52.550Z,24.68
2019-01-18T10:11:52.571Z,24.76
2019-01-18T10:12:52.682Z,24.87
2019-01-18T10:13:52.681Z,25.38
2019-01-18T10:14:52.730Z,25.61
2019-01-18T10:15:52.778Z,25.80
2019-01-18T10:16:52.834Z,26.18
2019-01-18T10:17:52.869Z,26.76
2019-01-18T10:18:53.054Z,27.14
2019-01-18T10:19:52.950Z,27.57
2019-01-18T10:20:53.021Z,27.85
2019-01-18T10:21:53.058Z,27.51
2019-01-18T10:22:53.130Z,27.69
2019-01-18T10:23:53.160Z,28.62
2019-01-18T10:24:53.221Z,29.28
2019-01-18T10:25:53.282Z,29.25
2019-01-18T10:26:53.328Z,29.19
2019-01-18T10:27:53.379Z,28.88
2019-01-18T10:28:53.412Z,28.59
2019-01-18T10:29:53.484Z,28.26
2019-01-18T10:30:53.536Z,28.09
2019-01-18T10:31:56.157Z,27.84
2019-01-18T10:32:53.648Z,27.91
2019-01-18T10:33:53.683Z,27.69
2019-01-18T10:34:53.744Z,27.43
2019-01-18T10:35:53.786Z,27.29
2019-01-18T10:36:54.890Z,27.16
2019-01-18T10:37:53.893Z,27.06
2019-01-18T10:38:53.949Z,26.89
2019-01-18T10:39:54.016Z,26.84
2019-01-18T10:40:54.049Z,26.94
2019-01-18T10:41:54.100Z,27.10
2019-01-18T10:42:55.543Z,27.38
2019-01-18T10:43:54.206Z,27.41
2019-01-18T10:44:54.259Z,27.42
2019-01-18T10:45:54.311Z,27.59
2019-01-18T10:46:54.348Z,27.99
2019-01-18T10:47:54.417Z,28.26
2019-01-18T10:48:54.483Z,28.22
2019-01-18T10:49:54.530Z,28.04
2019-01-18T10:50:54.566Z,27.96
2019-01-18T10:51:54.618Z,27.94
2019-01-18T10:52:54.690Z,28.03
2019-01-18T10:53:54.729Z,27.94
2019-01-18T10:54:54.794Z,27.91
2019-01-18T10:55:54.837Z,27.77
2019-01-18T10:56:54.891Z,27.82
2019-01-18T10:57:54.964Z,27.76
2019-01-18T10:58:54.991Z,27.88
2019-01-18T10:59:55.086Z,28.13
2019-01-18T11:00:55.100Z,28.31
2019-01-18T11:01:59.692Z,28.43
2019-01-18T11:02:55.206Z,28.77
2019-01-18T11:03:55.261Z,28.80
2019-01-18T11:04:55.312Z,28.75
2019-01-18T11:05:55.369Z,28.66
2019-01-18T11:06:55.417Z,29.26
2019-01-18T11:07:55.513Z,30.57
2019-01-18T11:08:55.537Z,31.27
2019-01-18T11:09:55.593Z,31.49
2019-01-18T11:10:55.676Z,31.92
2019-01-18T11:11:55.712Z,31.85
2019-01-18T11:12:55.720Z,31.58
2019-01-18T11:13:55.784Z,32.07
2019-01-18T11:14:55.892Z,32.21
2019-01-18T11:15:55.901Z,32.06
2019-01-18T11:16:55.958Z,31.60
2019-01-18T11:17:56.017Z,31.15
2019-01-18T11:18:56.062Z,30.80
2019-01-18T11:19:56.137Z,30.52
2019-01-18T11:20:56.181Z,30.46
2019-01-18T11:21:56.247Z,30.74
2019-01-18T11:22:56.277Z,30.57
2019-01-18T11:23:56.401Z,30.14
2019-01-18T11:24:56.400Z,29.78
2019-01-18T11:25:56.493Z,29.38
2019-01-18T11:26:56.506Z,29.22
2019-01-18T11:27:56.606Z,29.26
2019-01-18T11:28:56.607Z,29.33
2019-01-18T11:29:56.658Z,30.16
2019-01-18T11:30:56.760Z,31.85
2019-01-18T11:31:56.758Z,32.95
2019-01-18T11:32:56.825Z,33.17
2019-01-18T11:33:56.874Z,33.10
2019-01-18T11:34:56.943Z,32.62
2019-01-18T11:35:57.008Z,32.07
2019-01-18T11:36:58.231Z,31.99
2019-01-18T11:37:57.103Z,32.03
2019-01-18T11:38:57.166Z,31.95
2019-01-18T11:39:57.205Z,32.35
2019-01-18T11:40:57.277Z,33.30
2019-01-18T11:41:57.328Z,34.05
2019-01-18T11:42:57.376Z,33.79
2019-01-18T11:43:57.449Z,33.76
2019-01-18T11:44:57.481Z,33.58
2019-01-18T11:45:57.541Z,33.07
2019-01-18T11:46:57.598Z,32.48
2019-01-18T11:47:57.649Z,32.24
2019-01-18T11:48:57.717Z,31.84
2019-01-18T11:49:57.785Z,31.62
2019-01-18T11:50:57.829Z,31.30
2019-01-18T11:51:57.898Z,30.90
2019-01-18T11:52:57.940Z,30.71
2019-01-18T11:53:57.999Z,31.33
2019-01-18T11:54:58.047Z,32.44
2019-01-18T11:55:58.115Z,33.51
2019-01-18T11:56:58.180Z,34.32
2019-01-18T11:57:58.222Z,35.21
2019-01-18T11:58:58.283Z,36.21
2019-01-18T11:59:58.330Z,37.26
2019-01-18T12:00:58.431Z,37.51
2019-01-18T12:01:58.440Z,37.54
2019-01-18T12:02:58.499Z,37.83
2019-01-18T12:03:58.557Z,38.22
2019-01-18T12:04:58.626Z,37.77
2019-01-18T12:05:58.687Z,37.54
2019-01-18T12:06:58.742Z,37.36
2019-01-18T12:07:58.801Z,37.29
2019-01-18T12:08:58.893Z,37.21
2019-01-18T12:09:58.923Z,37.31
2019-01-18T12:10:58.988Z,37.04
2019-01-18T12:11:59.041Z,37.50
2019-01-18T12:12:59.104Z,38.33
2019-01-18T12:13:59.174Z,38.34
2019-01-18T12:14:59.224Z,39.03
2019-01-18T12:15:59.294Z,39.62
2019-01-18T12:16:59.355Z,40.33
2019-01-18T12:17:59.406Z,40.24
2019-01-18T12:18:59.459Z,39.70
2019-01-18T12:19:59.533Z,39.32
2019-01-18T12:20:59.578Z,39.33
2019-01-18T12:21:59.659Z,39.35
2019-01-18T12:22:59.713Z,38.57
2019-01-18T12:23:59.766Z,38.41
2019-01-18T12:24:59.846Z,38.30
2019-01-18T12:25:59.953Z,38.30
2019-01-18T12:26:59.950Z,38.46
2019-01-18T12:28:00.029Z,38.32
2019-01-18T12:29:00.116Z,38.46
2019-01-18T12:30:00.197Z,38.45
2019-01-18T12:31:00.207Z,38.15
2019-01-18T12:32:00.262Z,38.04
2019-01-18T12:33:00.345Z,37.68
2019-01-18T12:34:00.395Z,37.32
2019-01-18T12:35:00.468Z,37.59
2019-01-18T12:36:00.507Z,38.04
2019-01-18T12:37:00.621Z,38.36
2019-01-18T12:38:00.633Z,39.02
2019-01-18T12:39:00.697Z,39.62
2019-01-18T12:40:00.782Z,39.46
2019-01-18T12:41:00.884Z,39.98
2019-01-18T12:42:00.918Z,40.07
2019-01-18T12:43:00.971Z,39.84
2019-01-18T12:44:01.045Z,39.35
2019-01-18T12:45:01.387Z,38.68
2019-01-18T12:46:01.134Z,37.96
2019-01-18T12:47:01.203Z,37.73
2019-01-18T12:48:01.277Z,38.20
2019-01-18T12:49:01.386Z,37.73
2019-01-18T12:50:01.406Z,38.38
2019-01-18T12:51:01.507Z,38.24
2019-01-18T12:52:01.519Z,37.74
2019-01-18T12:53:01.585Z,37.29
2019-01-18T12:54:01.657Z,36.94
2019-01-18T12:55:01.705Z,37.17
2019-01-18T12:56:01.754Z,37.46
2019-01-18T12:57:01.812Z,37.47
2019-01-18T12:58:01.883Z,37.32
2019-01-18T12:59:01.949Z,37.56
2019-01-18T13:00:02.014Z,37.81
2019-01-18T13:01:02.086Z,37.73
2019-01-18T13:02:02.178Z,37.59
2019-01-18T13:03:02.211Z,37.56
2019-01-18T13:04:02.277Z,37.39
2019-01-18T13:05:02.357Z,37.70
2019-01-18T13:06:02.381Z,37.95
2019-01-18T13:07:02.432Z,38.24
2019-01-18T13:08:02.495Z,38.34
2019-01-18T13:09:02.567Z,38.44
2019-01-18T13:10:02.628Z,38.66
2019-01-18T13:11:02.695Z,38.36
2019-01-18T13:12:02.763Z,38.08
2019-01-18T13:13:02.912Z,38.14
2019-01-18T13:14:02.937Z,38.33
2019-01-18T13:15:02.948Z,38.73
2019-01-18T13:16:03.020Z,39.39
2019-01-18T13:17:03.114Z,39.61
2019-01-18T13:18:03.127Z,39.40
2019-01-18T13:19:03.260Z,38.82
2019-01-18T13:20:03.271Z,38.46
2019-01-18T13:21:03.376Z,38.53
2019-01-18T13:22:03.385Z,38.82
2019-01-18T13:23:03.443Z,39.30
2019-01-18T13:24:03.490Z,39.84
2019-01-18T13:25:03.573Z,40.40
2019-01-18T13:26:03.645Z,40.21
2019-01-18T13:27:03.740Z,40.43
2019-01-18T13:28:03.761Z,39.88
2019-01-18T13:29:03.802Z,39.73
2019-01-18T13:30:03.872Z,39.71
2019-01-18T13:31:03.946Z,40.11
2019-01-18T13:32:04.013Z,40.26
2019-01-18T13:33:04.079Z,40.50
2019-01-18T13:34:04.146Z,40.57
2019-01-18T13:35:04.194Z,40.65
2019-01-18T13:36:04.267Z,40.57
2019-01-18T13:37:04.334Z,40.57
2019-01-18T13:38:04.401Z,40.80
2019-01-18T13:39:04.459Z,41.12
2019-01-18T13:40:06.216Z,41.36
2019-01-18T13:41:04.597Z,41.31
2019-01-18T13:42:04.646Z,41.40
2019-01-18T13:43:04.716Z,41.22
2019-01-18T13:44:04.783Z,40.83
2019-01-18T13:45:04.830Z,40.83
2019-01-18T13:46:04.906Z,40.80
2019-01-18T13:47:04.959Z,40.38
2019-01-18T13:48:05.067Z,39.89
2019-01-18T13:49:05.092Z,39.69
2019-01-18T13:50:05.177Z,39.80
2019-01-18T13:51:05.229Z,39.51
2019-01-18T13:52:05.300Z,39.70
2019-01-18T13:53:05.355Z,39.37
2019-01-18T13:54:05.417Z,39.20
2019-01-18T13:55:05.480Z,39.32
2019-01-18T13:56:05.541Z,38.85
2019-01-18T13:57:05.623Z,39.06
2019-01-18T13:58:05.708Z,39.24
2019-01-18T13:59:05.718Z,39.32
2019-01-18T14:00:05.792Z,39.40
2019-01-18T14:01:05.855Z,39.64
2019-01-18T14:02:05.941Z,39.95
2019-01-18T14:03:06.017Z,39.89
2019-01-18T14:04:06.058Z,40.08
2019-01-18T14:05:06.130Z,40.59
2019-01-18T14:06:06.196Z,40.65
2019-01-18T14:07:06.260Z,40.90
2019-01-18T14:08:06.332Z,41.17
2019-01-18T14:09:06.374Z,40.90
2019-01-18T14:10:08.857Z,41.17
2019-01-18T14:11:06.489Z,40.81
2019-01-18T14:12:06.627Z,40.27
2019-01-18T14:13:06.642Z,39.74
2019-01-18T14:14:06.714Z,39.44
2019-01-18T14:15:06.769Z,39.58
2019-01-18T14:16:06.862Z,39.86
2019-01-18T14:17:06.912Z,40.30
2019-01-18T14:18:06.951Z,40.80
2019-01-18T14:19:07.023Z,41.34
2019-01-18T14:20:07.089Z,41.46
2019-01-18T14:21:07.173Z,41.09
2019-01-18T14:22:07.263Z,41.25
2019-01-18T14:23:07.286Z,41.31
2019-01-18T14:24:07.359Z,41.20
2019-01-18T14:25:07.400Z,40.98
2019-01-18T14:26:07.488Z,40.71
2019-01-18T14:27:07.557Z,40.40
2019-01-18T14:28:07.594Z,40.23
2019-01-18T14:29:07.685Z,40.23
2019-01-18T14:30:07.744Z,39.62
2019-01-18T14:31:07.813Z,39.33
2019-01-18T14:32:07.894Z,39.58
2019-01-18T14:33:07.938Z,39.92
2019-01-18T14:34:08.017Z,40.11
2019-01-18T14:35:08.067Z,39.98
2019-01-18T14:36:08.118Z,39.32
2019-01-18T14:37:08.172Z,38.79
2019-01-18T14:38:08.253Z,38.68
2019-01-18T14:39:08.320Z,38.60
2019-01-18T14:40:08.365Z,38.45
2019-01-18T14:41:08.436Z,38.32
2019-01-18T14:42:08.512Z,38.39
2019-01-18T14:43:08.560Z,38.42
2019-01-18T14:44:08.605Z,38.45
2019-01-18T14:45:08.687Z,38.44
2019-01-18T14:46:08.748Z,38.23
2019-01-18T14:47:08.832Z,38.01
2019-01-18T14:48:08.864Z,37.98
2019-01-18T14:49:08.945Z,38.36
2019-01-18T14:50:08.998Z,38.33
2019-01-18T14:51:09.050Z,38.26
2019-01-18T14:52:09.126Z,38.45
2019-01-18T14:53:09.205Z,38.49
2019-01-18T14:54:09.257Z,38.92
2019-01-18T14:55:09.297Z,39.37
2019-01-18T14:56:09.384Z,39.58
2019-01-18T14:57:09.455Z,39.70
2019-01-18T14:58:09.490Z,39.86
2019-01-18T14:59:09.575Z,39.88
2019-01-18T15:00:09.612Z,40.12
2019-01-18T15:01:09.728Z,40.21
2019-01-18T15:02:09.759Z,40.46
2019-01-18T15:03:09.851Z,40.80
2019-01-18T15:04:09.874Z,40.94
2019-01-18T15:05:09.953Z,41.22
2019-01-18T15:06:09.996Z,41.25
2019-01-18T15:07:10.077Z,40.83
2019-01-18T15:08:10.121Z,40.79
2019-01-18T15:09:10.218Z,40.76
2019-01-18T15:10:10.275Z,40.71
2019-01-18T15:11:10.326Z,40.61
2019-01-18T15:12:10.405Z,40.34
2019-01-18T15:13:10.461Z,40.21
2019-01-18T15:14:10.535Z,39.93
2019-01-18T15:15:10.576Z,39.83
2019-01-18T15:16:10.665Z,40.05
2019-01-18T15:17:10.724Z,39.81
2019-01-18T15:18:10.801Z,39.02
2019-01-18T15:19:10.851Z,38.55
2019-01-18T15:20:10.893Z,38.24
2019-01-18T15:21:10.967Z,37.83
2019-01-18T15:22:11.026Z,37.62
2019-01-18T15:23:11.137Z,37.67
2019-01-18T15:24:11.208Z,37.96
2019-01-18T15:25:11.258Z,38.41
2019-01-18T15:26:11.282Z,38.55
2019-01-18T15:27:11.325Z,39.01
2019-01-18T15:28:11.398Z,39.15
2019-01-18T15:29:11.506Z,38.99
2019-01-18T15:30:11.512Z,38.79
2019-01-18T15:31:11.603Z,38.79
2019-01-18T15:32:11.659Z,38.79
2019-01-18T15:33:11.709Z,39.22
2019-01-18T15:34:11.781Z,39.67
2019-01-18T15:35:11.840Z,40.10
2019-01-18T15:36:11.921Z,40.08
2019-01-18T15:37:11.983Z,40.12
2019-01-18T15:38:12.022Z,39.81
2019-01-18T15:39:12.099Z,39.78
2019-01-18T15:40:12.149Z,39.89
2019-01-18T15:41:12.225Z,39.98
2019-01-18T15:42:12.286Z,40.24
2019-01-18T15:43:12.357Z,40.08
2019-01-18T15:44:12.463Z,40.11
2019-01-18T15:45:12.524Z,39.93
2019-01-18T15:46:12.592Z,39.67
2019-01-18T15:47:12.610Z,39.22
2019-01-18T15:48:12.696Z,39.21
2019-01-18T15:49:12.732Z,39.59
2019-01-18T15:50:12.785Z,39.98
2019-01-18T15:51:12.855Z,40.17
2019-01-18T15:52:12.924Z,40.38
2019-01-18T15:53:12.983Z,40.40
2019-01-18T15:54:13.036Z,40.54
2019-01-18T15:55:13.113Z,40.90
2019-01-18T15:56:13.191Z,40.81
2019-01-18T15:57:13.227Z,40.40
2019-01-18T15:58:13.348Z,40.08
2019-01-18T15:59:13.369Z,39.86
2019-01-18T16:00:13.443Z,39.76
2019-01-18T16:01:13.506Z,39.46
2019-01-18T16:02:13.549Z,39.55
2019-01-18T16:03:16.061Z,39.05
2019-01-18T16:04:13.695Z,38.36
2019-01-18T16:05:13.731Z,38.07
2019-01-18T16:06:13.826Z,37.78